createdAt,value
2023-01-23T00:04:35.153Z,3.04
2023-01-23T00:09:38.121Z,3.04
2023-01-23T00:14:41.039Z,2.96
2023-01-23T00:19:44.527Z,2.89
2023-01-23T00:24:47.633Z,2.87
2023-01-23T00:29:53.542Z,2.94
2023-01-23T00:34:56.470Z,3.08
2023-01-23T00:39:59.414Z,3.16
2023-01-23T00:45:02.379Z,3.15
2023-01-23T00:50:05.811Z,3.12
2023-01-23T00:55:09.648Z,3.08
2023-01-23T01:00:13.216Z,3.03
2023-01-23T01:05:18.229Z,2.98
2023-01-23T01:10:21.344Z,2.93
2023-01-23T01:15:25.050Z,2.97
2023-01-23T01:20:28.962Z,3.04
2023-01-23T01:25:31.763Z,3.13
2023-01-23T01:30:36.843Z,3.15
2023-01-23T01:35:41.486Z,3.12
2023-01-23T01:40:44.456Z,3.11
2023-01-23T01:46:19.368Z,3.03
2023-01-23T01:51:59.646Z,2.91
2023-01-23T01:57:12.154Z,2.89
2023-01-23T02:02:22.479Z,2.96
2023-01-23T02:07:35.330Z,3.05
2023-01-23T02:12:38.871Z,3.08
2023-01-23T02:17:43.567Z,3.07
2023-01-23T02:23:29.516Z,3.07
2023-01-23T02:28:42.392Z,3.11
2023-01-23T02:33:52.711Z,3.13
2023-01-23T02:39:14.373Z,3.12
2023-01-23T02:44:21.299Z,3.19
2023-01-23T02:49:24.312Z,3.19
2023-01-23T02:54:27.210Z,3.16
2023-01-23T02:59:49.002Z,3.14
2023-01-23T03:04:51.910Z,3.08
2023-01-23T03:09:54.842Z,3.07
2023-01-23T03:14:58.818Z,3.10
2023-01-23T03:20:01.721Z,3.14
2023-01-23T03:25:05.205Z,3.22
2023-01-23T03:30:16.135Z,3.27
2023-01-23T03:35:20.507Z,3.28
2023-01-23T03:40:44.004Z,3.22
2023-01-23T03:45:46.884Z,3.11
2023-01-23T03:50:49.845Z,3.00
2023-01-23T03:55:52.815Z,2.96
2023-01-23T04:00:55.820Z,2.97
2023-01-23T04:05:59.357Z,3.05
2023-01-23T04:11:08.552Z,3.15
2023-01-23T04:16:11.596Z,3.19
2023-01-23T04:21:14.634Z,3.20
2023-01-23T04:26:17.697Z,3.19
2023-01-23T04:31:20.834Z,3.17
2023-01-23T04:36:23.799Z,3.12
2023-01-23T04:41:29.549Z,3.16
2023-01-23T04:46:32.525Z,3.16
2023-01-23T04:51:35.452Z,3.11
2023-01-23T04:56:38.355Z,3.12
2023-01-23T05:01:41.478Z,3.11
2023-01-23T05:06:44.441Z,3.06
2023-01-23T05:11:47.355Z,3.10
2023-01-23T05:16:50.342Z,3.12
2023-01-23T05:21:53.279Z,3.16
2023-01-23T05:26:56.195Z,3.18
2023-01-23T05:31:59.281Z,3.19
2023-01-23T05:37:02.353Z,3.18
2023-01-23T05:42:05.667Z,3.15
2023-01-23T05:47:08.588Z,3.14
2023-01-23T05:52:12.235Z,3.20
2023-01-23T05:57:15.185Z,3.25
2023-01-23T06:02:18.190Z,3.29
2023-01-23T06:07:21.420Z,3.30
2023-01-23T06:12:24.582Z,3.28
2023-01-23T06:17:27.515Z,3.29
2023-01-23T06:22:31.592Z,3.27
2023-01-23T06:27:34.654Z,3.27
2023-01-23T06:32:37.615Z,3.32
2023-01-23T06:37:40.573Z,3.36
2023-01-23T06:42:43.656Z,3.37
2023-01-23T06:47:46.624Z,3.34
2023-01-23T06:52:49.558Z,3.30
2023-01-23T06:57:52.476Z,3.26
2023-01-23T07:02:58.968Z,3.27
2023-01-23T07:08:04.110Z,3.33
2023-01-23T07:13:10.163Z,3.27
2023-01-23T07:18:13.168Z,3.24
2023-01-23T07:23:16.361Z,3.21
2023-01-23T07:28:19.417Z,3.22
2023-01-23T07:33:22.359Z,3.29
2023-01-23T07:38:28.561Z,3.30
2023-01-23T07:43:31.541Z,3.31
2023-01-23T07:48:34.490Z,3.30
2023-01-23T07:53:37.617Z,3.32
2023-01-23T07:58:40.642Z,3.35
2023-01-23T08:03:43.577Z,3.36
2023-01-23T08:08:49.438Z,3.34
2023-01-23T08:13:52.666Z,3.28
2023-01-23T08:18:55.673Z,3.23
2023-01-23T08:24:01.751Z,3.22
2023-01-23T08:29:05.159Z,3.28
2023-01-23T08:34:08.185Z,3.27
2023-01-23T08:39:11.142Z,3.24
2023-01-23T08:44:14.102Z,3.19
2023-01-23T08:49:19.635Z,3.22
2023-01-23T08:54:22.631Z,3.23
2023-01-23T08:59:25.734Z,3.23
2023-01-23T09:04:28.695Z,3.23
2023-01-23T09:09:31.617Z,3.23
2023-01-23T09:14:34.617Z,3.25
2023-01-23T09:19:37.603Z,3.35
2023-01-23T09:24:40.759Z,3.40
2023-01-23T09:29:43.743Z,3.37
2023-01-23T09:34:49.479Z,3.32
2023-01-23T09:39:52.450Z,3.34
2023-01-23T09:45:05.628Z,3.40
2023-01-23T09:50:28.154Z,3.45
2023-01-23T09:55:42.543Z,3.42
2023-01-23T10:00:46.495Z,3.29
2023-01-23T10:06:25.065Z,3.25
2023-01-23T10:11:45.378Z,3.30
2023-01-23T10:17:07.062Z,3.40
2023-01-23T10:22:34.700Z,3.45
2023-01-23T10:27:45.369Z,3.53
2023-01-23T10:33:09.730Z,3.51
2023-01-23T10:38:27.790Z,3.48
2023-01-23T10:43:30.798Z,3.56
2023-01-23T10:48:33.699Z,3.63
2023-01-23T10:53:36.676Z,3.70
2023-01-23T10:58:41.207Z,3.78
2023-01-23T11:03:46.096Z,3.80
2023-01-23T11:08:57.523Z,3.81
2023-01-23T11:14:11.677Z,3.79
2023-01-23T11:19:21.663Z,3.80
2023-01-23T11:24:40.173Z,3.86
2023-01-23T11:30:09.147Z,3.96
2023-01-23T11:35:18.912Z,3.99
2023-01-23T11:40:23.055Z,3.98
2023-01-23T11:45:28.732Z,3.96
2023-01-23T11:50:55.946Z,3.93
2023-01-23T11:56:53.058Z,3.93
2023-01-23T12:02:12.090Z,3.90
2023-01-23T12:07:23.813Z,3.83
2023-01-23T12:13:01.697Z,3.77
2023-01-23T12:19:02.772Z,3.80
2023-01-23T12:24:37.407Z,3.81
2023-01-23T12:30:21.950Z,3.78
2023-01-23T12:36:01.211Z,3.77
2023-01-23T12:41:36.443Z,3.73
2023-01-23T12:47:05.414Z,3.77
2023-01-23T12:52:25.924Z,3.79
2023-01-23T12:57:52.775Z,3.70
2023-01-23T13:03:21.836Z,3.62
2023-01-23T13:09:12.640Z,3.60
2023-01-23T13:14:43.388Z,3.61
2023-01-23T13:21:00.553Z,3.62
2023-01-23T13:26:16.116Z,3.61
2023-01-23T13:31:47.089Z,3.53
2023-01-23T13:37:14.350Z,3.40
2023-01-23T13:42:18.639Z,3.36
2023-01-23T14:21:41.221Z,3.51
2023-01-23T14:26:54.005Z,3.35
2023-01-23T14:31:56.354Z,3.22
2023-01-23T14:37:11.532Z,3.17
2023-01-23T14:42:29.165Z,3.25
2023-01-23T14:47:39.397Z,3.30
2023-01-23T14:52:44.105Z,3.40
2023-01-23T14:57:48.617Z,3.49
2023-01-23T15:02:54.440Z,3.48
2023-01-23T15:08:20.837Z,3.51
2023-01-23T15:13:40.140Z,3.55
2023-01-23T15:18:55.859Z,3.56
2023-01-23T15:24:14.029Z,3.56
2023-01-23T15:29:21.004Z,3.53
2023-01-23T15:34:34.863Z,3.45
2023-01-23T15:39:46.947Z,3.44
2023-01-23T15:44:50.256Z,3.49
2023-01-23T15:49:53.699Z,3.45
2023-01-23T15:55:05.453Z,3.33
2023-01-23T16:00:21.244Z,3.24
2023-01-23T16:05:35.325Z,3.20
2023-01-23T16:10:39.727Z,3.20
2023-01-23T16:15:43.462Z,3.25
2023-01-23T16:20:46.895Z,3.28
2023-01-23T16:25:50.922Z,3.25
2023-01-23T16:30:54.137Z,3.20
2023-01-23T16:35:57.205Z,3.17
2023-01-23T16:41:01.702Z,3.21
2023-01-23T16:46:04.938Z,3.22
2023-01-23T16:51:24.860Z,3.18
2023-01-23T16:56:40.820Z,3.11
2023-01-23T17:01:47.542Z,3.09
2023-01-23T17:06:50.814Z,3.14
2023-01-23T17:11:56.789Z,3.13
2023-01-23T17:17:10.017Z,3.10
2023-01-23T17:22:24.891Z,3.08
2023-01-23T17:27:27.868Z,3.06
2023-01-23T17:32:37.057Z,3.06
2023-01-23T17:37:40.119Z,3.09
2023-01-23T17:42:43.897Z,3.05
2023-01-23T17:47:53.653Z,2.98
2023-01-23T17:52:56.609Z,3.00
2023-01-23T17:58:00.785Z,3.08
2023-01-23T18:03:04.265Z,3.15
2023-01-23T18:08:10.310Z,3.14
2023-01-23T18:13:43.592Z,3.09
2023-01-23T18:18:53.217Z,3.07
2023-01-23T18:23:56.710Z,3.14
2023-01-23T18:29:34.040Z,3.19
2023-01-23T18:35:04.689Z,3.20
2023-01-23T18:40:44.265Z,3.18
2023-01-23T18:45:47.715Z,3.24
2023-01-23T18:51:37.083Z,3.33
2023-01-23T18:57:26.211Z,3.40
2023-01-23T19:02:52.863Z,3.37
2023-01-23T19:07:57.142Z,3.35
2023-01-23T19:13:17.787Z,3.39
2023-01-23T19:18:46.014Z,3.51
2023-01-23T19:24:10.056Z,3.54
2023-01-23T19:29:23.067Z,3.50
2023-01-23T19:34:26.271Z,3.47
2023-01-23T19:39:29.197Z,3.48
2023-01-23T19:44:33.261Z,3.51
2023-01-23T19:49:36.209Z,3.52
2023-01-23T19:54:39.254Z,3.48
2023-01-23T19:59:42.159Z,3.47
2023-01-23T20:04:46.269Z,3.48
2023-01-23T20:09:49.218Z,3.51
2023-01-23T20:14:52.258Z,3.57
2023-01-23T20:19:55.204Z,3.60
2023-01-23T20:24:58.158Z,3.58
2023-01-23T20:30:02.685Z,3.55
2023-01-23T20:35:06.009Z,3.52
2023-01-23T20:40:11.573Z,3.56
2023-01-23T20:45:14.683Z,3.58
2023-01-23T20:50:17.794Z,3.56
2023-01-23T20:55:20.991Z,3.52
2023-01-23T21:00:24.325Z,3.52
2023-01-23T21:05:27.249Z,3.56
2023-01-23T21:10:30.174Z,3.56
2023-01-23T21:15:33.371Z,3.53
2023-01-23T21:20:39.280Z,3.45
2023-01-23T21:25:42.884Z,3.46
2023-01-23T21:30:45.857Z,3.51
2023-01-23T21:35:53.967Z,3.57
2023-01-23T21:40:57.038Z,3.57
2023-01-23T21:46:00.120Z,3.53
2023-01-23T21:51:16.203Z,3.54
2023-01-23T21:56:21.981Z,3.62
2023-01-23T22:01:32.450Z,3.71
2023-01-23T22:06:37.158Z,3.72
2023-01-23T22:11:40.118Z,3.68
2023-01-23T22:16:51.162Z,3.60
2023-01-23T22:21:55.408Z,3.59
2023-01-23T22:26:58.524Z,3.59
2023-01-23T22:32:01.584Z,3.61
2023-01-23T22:37:04.591Z,3.71
2023-01-23T22:42:07.662Z,3.80
2023-01-23T22:47:11.055Z,3.76
2023-01-23T22:52:15.089Z,3.73
2023-01-23T22:57:17.933Z,3.64
2023-01-23T23:02:20.883Z,3.55
2023-01-23T23:07:23.859Z,3.49
2023-01-23T23:12:28.290Z,3.52
2023-01-23T23:17:31.230Z,3.58
2023-01-23T23:22:34.197Z,3.70
2023-01-23T23:27:38.907Z,3.77
2023-01-23T23:32:41.825Z,3.79
2023-01-23T23:37:44.748Z,3.80
2023-01-23T23:42:47.663Z,3.76
2023-01-23T23:47:50.658Z,3.80
2023-01-23T23:52:53.666Z,3.86
2023-01-23T23:57:56.601Z,3.84
